sensor_id;sensor_type;location;lat;lon;timestamp;P1;P2;P0
53698;PMS7003;68408;53.952;27.612;2023-12-20T00:02:10;9.2;7.3;5.7
53698;PMS7003;68408;53.952;27.612;2023-12-20T00:06:32;6.5;4.8;3.4
53698;PMS7003;68408;53.952;27.612;2023-12-20T00:11:32;8.6;7.3;6
53698;PMS7003;68408;53.952;27.612;2023-12-20T00:16:32;7.6;6.6;4.9
53698;PMS7003;68408;53.952;27.612;2023-12-20T00:21:40;8.7;7;5.5
53698;PMS7003;68408;53.952;27.612;2023-12-20T00:27:10;9.1;6.8;5.4
53698;PMS7003;68408;53.952;27.612;2023-12-20T00:31:40;8.4;6.4;4.9
53698;PMS7003;68408;53.952;27.612;2023-12-20T00:36:52;7.3;5.9;4.2
53698;PMS7003;68408;53.952;27.612;2023-12-20T00:42:10;7.1;5.5;4.2
53698;PMS7003;68408;53.952;27.612;2023-12-20T00:47:10;7.7;5.7;4.9
53698;PMS7003;68408;53.952;27.612;2023-12-20T00:52:08;6.7;5.1;3.9
53698;PMS7003;68408;53.952;27.612;2023-12-20T00:56:48;6.4;4.4;3.3
53698;PMS7003;68408;53.952;27.612;2023-12-20T01:01:42;6.1;4.8;4
53698;PMS7003;68408;53.952;27.612;2023-12-20T01:06:24;4.4;3.5;2.8
53698;PMS7003;68408;53.952;27.612;2023-12-20T01:11:32;5.8;4.5;3.6
53698;PMS7003;68408;53.952;27.612;2023-12-20T01:17:10;4.5;3.7;3
53698;PMS7003;68408;53.952;27.612;2023-12-20T01:21:50;4.8;3.4;2.9
53698;PMS7003;68408;53.952;27.612;2023-12-20T01:27:00;4.7;3.1;2.7
53698;PMS7003;68408;53.952;27.612;2023-12-20T01:32:01;4.7;3.2;2.8
53698;PMS7003;68408;53.952;27.612;2023-12-20T01:37:00;3.8;2.8;2.3
53698;PMS7003;68408;53.952;27.612;2023-12-20T01:42:08;3.9;2.9;2.3
53698;PMS7003;68408;53.952;27.612;2023-12-20T01:46:24;4.4;2.6;2.1
53698;PMS7003;68408;53.952;27.612;2023-12-20T01:52:10;4.4;2.7;2.2
53698;PMS7003;68408;53.952;27.612;2023-12-20T01:56:38;2.8;2.5;2.2
53698;PMS7003;68408;53.952;27.612;2023-12-20T02:01:24;3.8;3;2.7
53698;PMS7003;68408;53.952;27.612;2023-12-20T02:07:10;3.3;2.5;2.3
53698;PMS7003;68408;53.952;27.612;2023-12-20T02:11:42;3.3;2;1.7
53698;PMS7003;68408;53.952;27.612;2023-12-20T02:16:33;3.3;2.3;1.9
53698;PMS7003;68408;53.952;27.612;2023-12-20T02:21:50;3.4;2.3;2
53698;PMS7003;68408;53.952;27.612;2023-12-20T02:27:00;2.2;1.8;1.6
53698;PMS7003;68408;53.952;27.612;2023-12-20T02:32:10;3.5;2.3;2
53698;PMS7003;68408;53.952;27.612;2023-12-20T02:36:32;2.9;2.3;1.9
53698;PMS7003;68408;53.952;27.612;2023-12-20T02:41:50;2.5;2.1;1.9
53698;PMS7003;68408;53.952;27.612;2023-12-20T02:47:00;2.5;1.8;1.7
53698;PMS7003;68408;53.952;27.612;2023-12-20T02:52:11;2.6;2;1.7
53698;PMS7003;68408;53.952;27.612;2023-12-20T02:57:00;2.9;2;1.7
53698;PMS7003;68408;53.952;27.612;2023-12-20T03:02:00;2.2;2.1;1.8
53698;PMS7003;68408;53.952;27.612;2023-12-20T03:06:42;2.9;2.4;2
53698;PMS7003;68408;53.952;27.612;2023-12-20T03:12:00;3.1;2.5;2.1
53698;PMS7003;68408;53.952;27.612;2023-12-20T03:17:11;2.9;2.2;1.6
53698;PMS7003;68408;53.952;27.612;2023-12-20T03:21:33;3.1;1.9;1.6
53698;PMS7003;68408;53.952;27.612;2023-12-20T03:26:25;2.6;2;1.6
53698;PMS7003;68408;53.952;27.612;2023-12-20T03:31:33;2.6;2.5;2
53698;PMS7003;68408;53.952;27.612;2023-12-20T03:36:26;3.3;2;1.6
53698;PMS7003;68408;53.952;27.612;2023-12-20T03:42:10;4.5;2.6;2.3
53698;PMS7003;68408;53.952;27.612;2023-12-20T03:47:00;3.7;2.7;2.3
53698;PMS7003;68408;53.952;27.612;2023-12-20T03:51:52;3.8;3;2.4
53698;PMS7003;68408;53.952;27.612;2023-12-20T03:56:30;3.4;2.9;2.4
53698;PMS7003;68408;53.952;27.612;2023-12-20T04:01:24;3.4;2.5;2.2
53698;PMS7003;68408;53.952;27.612;2023-12-20T04:07:11;3.1;2;1.8
53698;PMS7003;68408;53.952;27.612;2023-12-20T04:11:49;3.1;2.6;2.1
53698;PMS7003;68408;53.952;27.612;2023-12-20T04:17:01;3.8;2.6;2.3
53698;PMS7003;68408;53.952;27.612;2023-12-20T04:21:32;4.1;3.4;3
53698;PMS7003;68408;53.952;27.612;2023-12-20T04:26:35;4.3;3.6;2.8
53698;PMS7003;68408;53.952;27.612;2023-12-20T04:32:10;5.2;4.2;3.4
53698;PMS7003;68408;53.952;27.612;2023-12-20T04:37:00;4.5;3.3;2.9
53698;PMS7003;68408;53.952;27.612;2023-12-20T04:42:01;3.7;2.9;2.4
53698;PMS7003;68408;53.952;27.612;2023-12-20T04:46:39;4;3.1;2.6
53698;PMS7003;68408;53.952;27.612;2023-12-20T04:52:01;5.3;3.7;3
53698;PMS7003;68408;53.952;27.612;2023-12-20T04:57:11;5.8;5.5;4.5
53698;PMS7003;68408;53.952;27.612;2023-12-20T05:01:25;6.7;5.6;4.7
53698;PMS7003;68408;53.952;27.612;2023-12-20T05:06:31;5.3;4.2;3.4
53698;PMS7003;68408;53.952;27.612;2023-12-20T05:11:33;8;6.3;4.6
53698;PMS7003;68408;53.952;27.612;2023-12-20T05:17:01;5.4;4.3;3.3
53698;PMS7003;68408;53.952;27.612;2023-12-20T05:22:01;4.6;3.9;3.1
53698;PMS7003;68408;53.952;27.612;2023-12-20T05:27:01;4.5;3.8;3
53698;PMS7003;68408;53.952;27.612;2023-12-20T05:32:01;5;3.9;3
53698;PMS7003;68408;53.952;27.612;2023-12-20T05:36:35;5.5;3.8;3
53698;PMS7003;68408;53.952;27.612;2023-12-20T05:42:01;5.4;4;3.2
53698;PMS7003;68408;53.952;27.612;2023-12-20T05:46:35;16.1;13.3;9.2
53698;PMS7003;68408;53.952;27.612;2023-12-20T05:51:49;6.4;5;4
53698;PMS7003;68408;53.952;27.612;2023-12-20T05:56:25;3.5;2.7;2.3
53698;PMS7003;68408;53.952;27.612;2023-12-20T06:01:25;4.7;3.2;2.7
53698;PMS7003;68408;53.952;27.612;2023-12-20T06:06:39;7.9;5.7;4.4
53698;PMS7003;68408;53.952;27.612;2023-12-20T06:11:43;4.6;3.1;2.6
53698;PMS7003;68408;53.952;27.612;2023-12-20T06:17:01;5;3.3;2.9
53698;PMS7003;68408;53.952;27.612;2023-12-20T06:21:53;6.1;5;4.1
53698;PMS7003;68408;53.952;27.612;2023-12-20T06:26:25;4.3;3.4;2.8
53698;PMS7003;68408;53.952;27.612;2023-12-20T06:31:51;3.9;3;2.5
53698;PMS7003;68408;53.952;27.612;2023-12-20T06:37:11;4.4;3.2;2.5
53698;PMS7003;68408;53.952;27.612;2023-12-20T06:41:51;3.5;2.7;2.2
53698;PMS7003;68408;53.952;27.612;2023-12-20T06:46:25;4.5;3;2.6
53698;PMS7003;68408;53.952;27.612;2023-12-20T06:51:33;2.2;2.2;1.9
53698;PMS7003;68408;53.952;27.612;2023-12-20T06:57:01;3.1;2.5;2.2
53698;PMS7003;68408;53.952;27.612;2023-12-20T07:02:09;3.5;2.8;2.3
53698;PMS7003;68408;53.952;27.612;2023-12-20T07:06:53;3.6;3.1;2.5
53698;PMS7003;68408;53.952;27.612;2023-12-20T07:12:01;5.3;3.8;3.2
53698;PMS7003;68408;53.952;27.612;2023-12-20T07:16:25;4;3;2.2
53698;PMS7003;68408;53.952;27.612;2023-12-20T07:21:33;5.1;3.4;3
53698;PMS7003;68408;53.952;27.612;2023-12-20T07:27:11;5.5;4.2;3.2
53698;PMS7003;68408;53.952;27.612;2023-12-20T07:31:25;4.7;3.8;3.2
53698;PMS7003;68408;53.952;27.612;2023-12-20T07:36:25;4.2;3.2;2.6
53698;PMS7003;68408;53.952;27.612;2023-12-20T07:41:25;4.7;3.8;3
53698;PMS7003;68408;53.952;27.612;2023-12-20T07:46:59;4.4;3.5;2.9
53698;PMS7003;68408;53.952;27.612;2023-12-20T07:52:07;6.1;4.4;3.7
53698;PMS7003;68408;53.952;27.612;2023-12-20T07:57:11;5.2;4.1;3.5
53698;PMS7003;68408;53.952;27.612;2023-12-20T08:01:51;5.1;4.6;3.6
53698;PMS7003;68408;53.952;27.612;2023-12-20T08:06:41;6.7;5.6;4.2
53698;PMS7003;68408;53.952;27.612;2023-12-20T08:11:55;8.2;6.6;5.1
53698;PMS7003;68408;53.952;27.612;2023-12-20T08:17:11;7.4;5.6;4.5
53698;PMS7003;68408;53.952;27.612;2023-12-20T08:21:25;6;5.4;4.2
53698;PMS7003;68408;53.952;27.612;2023-12-20T08:26:25;6.5;5.2;4.2
53698;PMS7003;68408;53.952;27.612;2023-12-20T08:31:41;6.4;5.6;4.3
53698;PMS7003;68408;53.952;27.612;2023-12-20T08:37:03;6.3;5.1;3.9
53698;PMS7003;68408;53.952;27.612;2023-12-20T08:42:11;6.1;4.5;3.7
53698;PMS7003;68408;53.952;27.612;2023-12-20T08:46:25;7.2;6.2;4.7
53698;PMS7003;68408;53.952;27.612;2023-12-20T08:51:59;7.4;5.9;4.6
53698;PMS7003;68408;53.952;27.612;2023-12-20T08:56:51;7.5;5.7;4.4
53698;PMS7003;68408;53.952;27.612;2023-12-20T09:01:33;8.6;7;5.3
53698;PMS7003;68408;53.952;27.612;2023-12-20T09:07:01;7.7;6.5;5.1
53698;PMS7003;68408;53.952;27.612;2023-12-20T09:11:33;6.9;5;4
53698;PMS7003;68408;53.952;27.612;2023-12-20T09:16:25;6.6;5.1;4.2
53698;PMS7003;68408;53.952;27.612;2023-12-20T09:21:25;6.6;5.2;4.2
53698;PMS7003;68408;53.952;27.612;2023-12-20T09:27:01;8.1;5.9;4.7
53698;PMS7003;68408;53.952;27.612;2023-12-20T09:32:11;7.3;6.4;5
53698;PMS7003;68408;53.952;27.612;2023-12-20T09:36:51;8.6;6.5;5.1
53698;PMS7003;68408;53.952;27.612;2023-12-20T09:42:02;9.4;6.7;5.4
53698;PMS7003;68408;53.952;27.612;2023-12-20T09:46:39;7.8;6.6;4.9
53698;PMS7003;68408;53.952;27.612;2023-12-20T09:51:45;8;6.2;4.8
53698;PMS7003;68408;53.952;27.612;2023-12-20T09:57:13;8;6.5;5.3
53698;PMS7003;68408;53.952;27.612;2023-12-20T10:01:41;8.7;6.9;4.9
53698;PMS7003;68408;53.952;27.612;2023-12-20T10:06:25;10.3;8.4;6.5
53698;PMS7003;68408;53.952;27.612;2023-12-20T10:11:25;9;7.4;5.8
53698;PMS7003;68408;53.952;27.612;2023-12-20T10:17:02;7.3;6.6;4.7
53698;PMS7003;68408;53.952;27.612;2023-12-20T10:22:11;7.9;5.8;4.7
53698;PMS7003;68408;53.952;27.612;2023-12-20T10:27:00;6.5;4.7;3.9
53698;PMS7003;68408;53.952;27.612;2023-12-20T10:31:27;7.7;6;4.7
53698;PMS7003;68408;53.952;27.612;2023-12-20T10:36:53;9.5;7.7;6
53698;PMS7003;68408;53.952;27.612;2023-12-20T10:41:25;10.7;8.5;6.9
53698;PMS7003;68408;53.952;27.612;2023-12-20T10:46:49;8.1;6.1;5
53698;PMS7003;68408;53.952;27.612;2023-12-20T10:51:25;7.8;6.3;4.7
53698;PMS7003;68408;53.952;27.612;2023-12-20T10:56:25;8.1;6.7;5.5
53698;PMS7003;68408;53.952;27.612;2023-12-20T11:01:43;8.1;6.2;4.7
53698;PMS7003;68408;53.952;27.612;2023-12-20T11:07:02;8.1;6.4;4.7
53698;PMS7003;68408;53.952;27.612;2023-12-20T11:12:13;7.1;5.6;4.5
53698;PMS7003;68408;53.952;27.612;2023-12-20T11:17:05;13.2;10.3;8
53698;PMS7003;68408;53.952;27.612;2023-12-20T11:21:41;8.8;7.3;5.4
53698;PMS7003;68408;53.952;27.612;2023-12-20T11:26:55;8.2;5.8;4.5
53698;PMS7003;68408;53.952;27.612;2023-12-20T11:31:51;6.2;4.4;3.6
53698;PMS7003;68408;53.952;27.612;2023-12-20T11:37:11;6;4.9;3.5
53698;PMS7003;68408;53.952;27.612;2023-12-20T11:42:04;6.4;5.5;4.5
53698;PMS7003;68408;53.952;27.612;2023-12-20T11:47:07;6.8;5;4
53698;PMS7003;68408;53.952;27.612;2023-12-20T11:52:01;6.9;5.4;4.3
53698;PMS7003;68408;53.952;27.612;2023-12-20T11:56:33;7.2;5.4;4.4
53698;PMS7003;68408;53.952;27.612;2023-12-20T12:01:51;6.6;5.6;4.7
53698;PMS7003;68408;53.952;27.612;2023-12-20T12:07:11;7.9;6.9;5.6
53698;PMS7003;68408;53.952;27.612;2023-12-20T12:11:53;7.9;6.3;5.2
53698;PMS7003;68408;53.952;27.612;2023-12-20T12:17:01;8.6;7.4;5.7
53698;PMS7003;68408;53.952;27.612;2023-12-20T12:21:51;19.3;16;11.8
53698;PMS7003;68408;53.952;27.612;2023-12-20T12:27:11;13.3;11;8.4
53698;PMS7003;68408;53.952;27.612;2023-12-20T12:31:33;8.6;6.8;5.6
53698;PMS7003;68408;53.952;27.612;2023-12-20T12:36:43;8.8;7.9;6
53698;PMS7003;68408;53.952;27.612;2023-12-20T12:42:13;5.5;4.6;3.6
53698;PMS7003;68408;53.952;27.612;2023-12-20T12:46:25;7.4;6.8;5
53698;PMS7003;68408;53.952;27.612;2023-12-20T12:52:13;10.9;8.5;7
53698;PMS7003;68408;53.952;27.612;2023-12-20T12:57:11;8.6;6.6;4.9
53698;PMS7003;68408;53.952;27.612;2023-12-20T13:01:53;9;7.4;5.7
53698;PMS7003;68408;53.952;27.612;2023-12-20T13:06:53;9.1;8;6.4
53698;PMS7003;68408;53.952;27.612;2023-12-20T13:11:25;7.9;6.9;5.7
53698;PMS7003;68408;53.952;27.612;2023-12-20T13:16:45;6.1;4.8;3.9
53698;PMS7003;68408;53.952;27.612;2023-12-20T13:21:43;7.4;6.7;5.5
53698;PMS7003;68408;53.952;27.612;2023-12-20T13:26:25;8.7;6.4;5
53698;PMS7003;68408;53.952;27.612;2023-12-20T13:32:03;8.6;7;5.5
53698;PMS7003;68408;53.952;27.612;2023-12-20T13:36:41;6.2;5.1;4.3
53698;PMS7003;68408;53.952;27.612;2023-12-20T13:42:11;7;5.8;4.6
53698;PMS7003;68408;53.952;27.612;2023-12-20T13:47:13;8.6;7.1;5.8
53698;PMS7003;68408;53.952;27.612;2023-12-20T13:51:27;10.3;9.1;7.7
53698;PMS7003;68408;53.952;27.612;2023-12-20T13:56:53;11.3;10.3;8
53698;PMS7003;68408;53.952;27.612;2023-12-20T14:01:33;11.2;10.1;7.9
53698;PMS7003;68408;53.952;27.612;2023-12-20T14:07:01;12.6;9.9;8.3
53698;PMS7003;68408;53.952;27.612;2023-12-20T14:11:25;10.8;9.2;7.4
53698;PMS7003;68408;53.952;27.612;2023-12-20T14:16:25;9.7;8.3;6.8
53698;PMS7003;68408;53.952;27.612;2023-12-20T14:22:11;10.2;8.4;6.7
53698;PMS7003;68408;53.952;27.612;2023-12-20T14:26:31;10.4;8.3;6.7
53698;PMS7003;68408;53.952;27.612;2023-12-20T14:31:27;12.4;10.6;8.2
53698;PMS7003;68408;53.952;27.612;2023-12-20T14:37:01;10.8;8.8;7.3
53698;PMS7003;68408;53.952;27.612;2023-12-20T14:42:01;9.8;8.4;7
53698;PMS7003;68408;53.952;27.612;2023-12-20T14:47:13;8.6;7.5;6.1
53698;PMS7003;68408;53.952;27.612;2023-12-20T14:51:51;9.4;7.5;6
53698;PMS7003;68408;53.952;27.612;2023-12-20T14:56:27;9;7.4;6.3
53698;PMS7003;68408;53.952;27.612;2023-12-20T15:01:25;8;6.4;5.3
53698;PMS7003;68408;53.952;27.612;2023-12-20T15:06:51;6.4;5.2;4.4
53698;PMS7003;68408;53.952;27.612;2023-12-20T15:11:45;7.6;6.4;5.2
53698;PMS7003;68408;53.952;27.612;2023-12-20T15:16:41;8.3;6.4;5.3
53698;PMS7003;68408;53.952;27.612;2023-12-20T15:22:11;7.7;5.7;4.4
53698;PMS7003;68408;53.952;27.612;2023-12-20T15:27:13;6.7;5.1;4
53698;PMS7003;68408;53.952;27.612;2023-12-20T15:32:01;6.4;5.1;4.2
53698;PMS7003;68408;53.952;27.612;2023-12-20T15:36:59;6.2;4.8;3.8
53698;PMS7003;68408;53.952;27.612;2023-12-20T15:41:51;6.5;4.9;3.9
53698;PMS7003;68408;53.952;27.612;2023-12-20T15:47:13;6.9;5.6;4.2
53698;PMS7003;68408;53.952;27.612;2023-12-20T15:51:25;10.2;8.2;6.4
53698;PMS7003;68408;53.952;27.612;2023-12-20T15:57:01;7.3;6.2;4.7
53698;PMS7003;68408;53.952;27.612;2023-12-20T16:02:09;7;5.9;4.5
53698;PMS7003;68408;53.952;27.612;2023-12-20T16:06:25;6.5;5.5;4.1
53698;PMS7003;68408;53.952;27.612;2023-12-20T16:12:11;8.3;7.1;5.7
53698;PMS7003;68408;53.952;27.612;2023-12-20T16:16:27;13.4;11.9;9.5
53698;PMS7003;68408;53.952;27.612;2023-12-20T16:22:13;13;11.3;8.7
53698;PMS7003;68408;53.952;27.612;2023-12-20T16:27:13;8.2;6;4.4
53698;PMS7003;68408;53.952;27.612;2023-12-20T16:31:51;8;7;6
53698;PMS7003;68408;53.952;27.612;2023-12-20T16:36:25;8.6;6.8;5.6
53698;PMS7003;68408;53.952;27.612;2023-12-20T16:42:11;10.9;8.4;7
53698;PMS7003;68408;53.952;27.612;2023-12-20T16:46:25;13.5;11.6;9.1
53698;PMS7003;68408;53.952;27.612;2023-12-20T16:51:36;11.8;9.2;7.6
53698;PMS7003;68408;53.952;27.612;2023-12-20T16:56:39;9.4;7.1;5.9
53698;PMS7003;68408;53.952;27.612;2023-12-20T17:01:53;7.6;6.8;5.6
53698;PMS7003;68408;53.952;27.612;2023-12-20T17:06:51;8.9;7;5.7
53698;PMS7003;68408;53.952;27.612;2023-12-20T17:12:01;9.2;7.4;6.2
53698;PMS7003;68408;53.952;27.612;2023-12-20T17:17:13;8.4;6.2;5.2
53698;PMS7003;68408;53.952;27.612;2023-12-20T17:21:41;7.6;5.7;4.3
53698;PMS7003;68408;53.952;27.612;2023-12-20T17:26:25;6.7;5.1;3.9
53698;PMS7003;68408;53.952;27.612;2023-12-20T17:31:33;6.6;5.7;4.5
53698;PMS7003;68408;53.952;27.612;2023-12-20T17:36:51;7.7;5.4;4.3
53698;PMS7003;68408;53.952;27.612;2023-12-20T17:41:35;7.3;5.5;4.7
53698;PMS7003;68408;53.952;27.612;2023-12-20T17:46:33;8.2;6.4;5.2
53698;PMS7003;68408;53.952;27.612;2023-12-20T17:52:13;3.9;2.7;2.1
53698;PMS7003;68408;53.952;27.612;2023-12-20T17:56:43;6.7;5;4.2
53698;PMS7003;68408;53.952;27.612;2023-12-20T18:02:09;5.9;4.6;3.7
53698;PMS7003;68408;53.952;27.612;2023-12-20T18:07:11;5;3.8;2.9
53698;PMS7003;68408;53.952;27.612;2023-12-20T18:11:25;11.4;8.2;6
53698;PMS7003;68408;53.952;27.612;2023-12-20T18:16:51;6.3;4.2;3.4
53698;PMS7003;68408;53.952;27.612;2023-12-20T18:22:03;3.6;2.6;2.2
53698;PMS7003;68408;53.952;27.612;2023-12-20T18:26:43;3.3;2.4;2
53698;PMS7003;68408;53.952;27.612;2023-12-20T18:31:41;3.6;2.8;2.2
53698;PMS7003;68408;53.952;27.612;2023-12-20T18:36:41;3.7;2.4;2
53698;PMS7003;68408;53.952;27.612;2023-12-20T18:42:13;4.3;2.5;2.2
53698;PMS7003;68408;53.952;27.612;2023-12-20T18:46:51;3.7;2.1;1.7
53698;PMS7003;68408;53.952;27.612;2023-12-20T18:52:11;3.6;2.5;2.2
53698;PMS7003;68408;53.952;27.612;2023-12-20T18:56:59;3.4;2.5;2.2
53698;PMS7003;68408;53.952;27.612;2023-12-20T19:01:33;4.8;2.9;2.1
53698;PMS7003;68408;53.952;27.612;2023-12-20T19:06:25;5.4;3.9;2.9
53698;PMS7003;68408;53.952;27.612;2023-12-20T19:11:25;3.1;2.2;1.7
53698;PMS7003;68408;53.952;27.612;2023-12-20T19:16:25;3.1;2.4;2.1
53698;PMS7003;68408;53.952;27.612;2023-12-20T19:21:49;2.9;2;1.5
53698;PMS7003;68408;53.952;27.612;2023-12-20T19:26:25;1.4;1.1;1
53698;PMS7003;68408;53.952;27.612;2023-12-20T19:31:51;2.1;1.7;1.4
53698;PMS7003;68408;53.952;27.612;2023-12-20T19:36:53;2.7;1.8;1.5
53698;PMS7003;68408;53.952;27.612;2023-12-20T19:42:03;2.9;1.8;1.4
53698;PMS7003;68408;53.952;27.612;2023-12-20T19:46:47;2.7;1.9;1.3
53698;PMS7003;68408;53.952;27.612;2023-12-20T19:52:01;4;2.5;1.9
53698;PMS7003;68408;53.952;27.612;2023-12-20T19:56:25;4.3;3;2.5
53698;PMS7003;68408;53.952;27.612;2023-12-20T20:01:25;5.4;3.9;3
53698;PMS7003;68408;53.952;27.612;2023-12-20T20:06:25;3.6;2.2;1.7
53698;PMS7003;68408;53.952;27.612;2023-12-20T20:11:51;3;2.2;1.8
53698;PMS7003;68408;53.952;27.612;2023-12-20T20:16:31;3.3;2.2;1.6
53698;PMS7003;68408;53.952;27.612;2023-12-20T20:22:13;3;2.3;1.9
53698;PMS7003;68408;53.952;27.612;2023-12-20T20:26:45;3.8;2.1;1.7
53698;PMS7003;68408;53.952;27.612;2023-12-20T20:32:13;3.9;2.3;1.8
53698;PMS7003;68408;53.952;27.612;2023-12-20T20:37:11;3.4;2.2;1.9
53698;PMS7003;68408;53.952;27.612;2023-12-20T20:41:51;3.7;2.8;2.1
53698;PMS7003;68408;53.952;27.612;2023-12-20T20:46:51;4;2.6;2.1
53698;PMS7003;68408;53.952;27.612;2023-12-20T20:51:25;4.6;3.2;2.2
53698;PMS7003;68408;53.952;27.612;2023-12-20T20:56:41;5.5;3.4;2.8
53698;PMS7003;68408;53.952;27.612;2023-12-20T21:02:01;5.8;4.4;3.5
53698;PMS7003;68408;53.952;27.612;2023-12-20T21:07:03;3.9;3;2.4
53698;PMS7003;68408;53.952;27.612;2023-12-20T21:11:33;6;3.7;2.9
53698;PMS7003;68408;53.952;27.612;2023-12-20T21:16:37;5.5;3.5;2.5
53698;PMS7003;68408;53.952;27.612;2023-12-20T21:21:27;5.6;3.6;2.5
53698;PMS7003;68408;53.952;27.612;2023-12-20T21:27:13;5.3;3.3;2.6
53698;PMS7003;68408;53.952;27.612;2023-12-20T21:31:45;4;3.2;2.5
53698;PMS7003;68408;53.952;27.612;2023-12-20T21:36:33;5.1;3.6;2.6
53698;PMS7003;68408;53.952;27.612;2023-12-20T21:41:53;4.9;3.3;2.6
53698;PMS7003;68408;53.952;27.612;2023-12-20T21:46:41;4.5;3.2;2.5
53698;PMS7003;68408;53.952;27.612;2023-12-20T21:52:11;6.1;3.2;2.7
53698;PMS7003;68408;53.952;27.612;2023-12-20T21:56:41;4.1;3.1;2.5
53698;PMS7003;68408;53.952;27.612;2023-12-20T22:01:25;4.2;2.7;2.1
53698;PMS7003;68408;53.952;27.612;2023-12-20T22:06:51;4.1;2.9;2.4
53698;PMS7003;68408;53.952;27.612;2023-12-20T22:11:45;4.6;3.8;3
53698;PMS7003;68408;53.952;27.612;2023-12-20T22:17:11;5;2.8;2.1
53698;PMS7003;68408;53.952;27.612;2023-12-20T22:22:11;5;3.6;2.7
53698;PMS7003;68408;53.952;27.612;2023-12-20T22:26:25;4.7;3.5;2.8
53698;PMS7003;68408;53.952;27.612;2023-12-20T22:31:33;3.8;3;2.1
53698;PMS7003;68408;53.952;27.612;2023-12-20T22:36:43;5.2;4.1;2.9
53698;PMS7003;68408;53.952;27.612;2023-12-20T22:42:01;5.5;4;3.3
53698;PMS7003;68408;53.952;27.612;2023-12-20T22:46:25;5.7;4.2;3.1
53698;PMS7003;68408;53.952;27.612;2023-12-20T22:51:33;4.6;3.9;3.2
53698;PMS7003;68408;53.952;27.612;2023-12-20T22:56:49;4;2.7;2.3
53698;PMS7003;68408;53.952;27.612;2023-12-20T23:02:01;5.1;2.9;2.3
53698;PMS7003;68408;53.952;27.612;2023-12-20T23:07:11;5.5;4.1;3.3
53698;PMS7003;68408;53.952;27.612;2023-12-20T23:12:03;4.7;3;2.2
53698;PMS7003;68408;53.952;27.612;2023-12-20T23:16:43;5.7;3.7;2.9
53698;PMS7003;68408;53.952;27.612;2023-12-20T23:21:25;4.9;3.5;2.6
53698;PMS7003;68408;53.952;27.612;2023-12-20T23:26:25;4.2;2.8;2.4
53698;PMS7003;68408;53.952;27.612;2023-12-20T23:31:27;6.3;4;2.9
53698;PMS7003;68408;53.952;27.612;2023-12-20T23:36:31;5.8;4.3;3.4
53698;PMS7003;68408;53.952;27.612;2023-12-20T23:41:33;5.9;4.4;3.3
53698;PMS7003;68408;53.952;27.612;2023-12-20T23:46:35;6.4;4.5;3.7
53698;PMS7003;68408;53.952;27.612;2023-12-20T23:52:01;6;4.3;3.6
53698;PMS7003;68408;53.952;27.612;2023-12-20T23:57:13;5.9;3.9;3
